sensor_id;sensor_type;location;lat;lon;timestamp;pressure;altitude;pressure_sealevel;temperature;humidity
76285;BME280;65096;50.998;7.098;2022-12-07T00:01:17;101103.69;;;3.92;71.26
76285;BME280;65096;50.998;7.098;2022-12-07T00:03:45;101099.25;;;3.88;71.54
76285;BME280;65096;50.998;7.098;2022-12-07T00:06:14;101098.50;;;3.91;71.36
76285;BME280;65096;50.998;7.098;2022-12-07T00:08:41;101100.81;;;3.85;71.84
76285;BME280;65096;50.998;7.098;2022-12-07T00:11:09;101095.69;;;3.85;71.96
76285;BME280;65096;50.998;7.098;2022-12-07T00:13:37;101091.19;;;3.78;72.01
76285;BME280;65096;50.998;7.098;2022-12-07T00:16:07;101105.22;;;3.89;72.36
76285;BME280;65096;50.998;7.098;2022-12-07T00:18:35;101104.06;;;3.81;72.23
76285;BME280;65096;50.998;7.098;2022-12-07T00:21:02;101083.53;;;3.78;72.09
76285;BME280;65096;50.998;7.098;2022-12-07T00:23:29;101097.69;;;3.92;71.73
76285;BME280;65096;50.998;7.098;2022-12-07T00:26:02;101092.53;;;3.90;71.95
76285;BME280;65096;50.998;7.098;2022-12-07T00:28:28;101098.56;;;3.92;71.92
76285;BME280;65096;50.998;7.098;2022-12-07T00:31:00;101095.19;;;3.93;72.10
76285;BME280;65096;50.998;7.098;2022-12-07T00:33:28;101094.47;;;3.96;72.17
76285;BME280;65096;50.998;7.098;2022-12-07T00:35:55;101091.09;;;3.97;71.68
76285;BME280;65096;50.998;7.098;2022-12-07T00:38:22;101092.72;;;3.95;72.01
76285;BME280;65096;50.998;7.098;2022-12-07T00:40:54;101091.97;;;3.97;71.78
76285;BME280;65096;50.998;7.098;2022-12-07T00:43:21;101089.41;;;3.97;71.47
76285;BME280;65096;50.998;7.098;2022-12-07T00:45:47;101086.09;;;4.00;71.66
76285;BME280;65096;50.998;7.098;2022-12-07T00:48:14;101086.00;;;3.97;71.80
76285;BME280;65096;50.998;7.098;2022-12-07T00:50:42;101080.28;;;4.02;71.76
76285;BME280;65096;50.998;7.098;2022-12-07T00:53:08;101083.50;;;3.98;72.20
76285;BME280;65096;50.998;7.098;2022-12-07T00:55:36;101072.47;;;3.99;71.91
76285;BME280;65096;50.998;7.098;2022-12-07T00:58:03;101069.25;;;4.03;71.35
76285;BME280;65096;50.998;7.098;2022-12-07T01:00:30;101075.00;;;3.99;71.77
76285;BME280;65096;50.998;7.098;2022-12-07T01:02:57;101074.22;;;4.00;71.82
76285;BME280;65096;50.998;7.098;2022-12-07T01:05:24;101070.06;;;4.02;71.82
76285;BME280;65096;50.998;7.098;2022-12-07T01:07:52;101074.16;;;3.99;72.18
76285;BME280;65096;50.998;7.098;2022-12-07T01:10:18;101071.78;;;4.03;72.06
76285;BME280;65096;50.998;7.098;2022-12-07T01:12:45;101072.78;;;4.07;72.08
76285;BME280;65096;50.998;7.098;2022-12-07T01:15:12;101073.56;;;4.06;72.17
76285;BME280;65096;50.998;7.098;2022-12-07T01:17:38;101076.19;;;4.07;72.36
76285;BME280;65096;50.998;7.098;2022-12-07T01:20:06;101036.25;;;3.86;72.02
76285;BME280;65096;50.998;7.098;2022-12-07T01:22:36;101072.00;;;4.09;71.94
76285;BME280;65096;50.998;7.098;2022-12-07T01:25:05;101084.44;;;4.00;71.89
76285;BME280;65096;50.998;7.098;2022-12-07T01:27:32;101073.91;;;3.93;72.22
76285;BME280;65096;50.998;7.098;2022-12-07T01:29:59;101086.44;;;3.87;73.04
76285;BME280;65096;50.998;7.098;2022-12-07T01:32:26;101085.88;;;3.94;71.93
76285;BME280;65096;50.998;7.098;2022-12-07T01:34:52;101084.59;;;3.83;72.54
76285;BME280;65096;50.998;7.098;2022-12-07T01:37:19;101083.88;;;3.87;72.66
76285;BME280;65096;50.998;7.098;2022-12-07T01:39:48;101075.63;;;3.92;72.56
76285;BME280;65096;50.998;7.098;2022-12-07T01:42:17;101076.47;;;3.93;72.82
76285;BME280;65096;50.998;7.098;2022-12-07T01:47:51;101074.78;;;3.93;72.47
76285;BME280;65096;50.998;7.098;2022-12-07T01:50:20;101076.66;;;3.97;72.05
76285;BME280;65096;50.998;7.098;2022-12-07T01:52:49;101075.78;;;3.97;71.95
76285;BME280;65096;50.998;7.098;2022-12-07T01:55:18;101074.22;;;4.00;71.97
76285;BME280;65096;50.998;7.098;2022-12-07T01:57:49;101064.66;;;3.95;72.31
76285;BME280;65096;50.998;7.098;2022-12-07T02:00:18;101075.91;;;4.00;71.99
76285;BME280;65096;50.998;7.098;2022-12-07T02:02:48;101057.00;;;3.95;72.07
76285;BME280;65096;50.998;7.098;2022-12-07T02:05:17;101065.00;;;4.04;72.37
76285;BME280;65096;50.998;7.098;2022-12-07T02:07:45;101058.31;;;4.07;72.10
76285;BME280;65096;50.998;7.098;2022-12-07T02:10:14;101051.44;;;4.05;72.03
76285;BME280;65096;50.998;7.098;2022-12-07T02:12:42;101054.97;;;4.08;72.49
76285;BME280;65096;50.998;7.098;2022-12-07T02:15:12;101050.59;;;4.06;72.23
76285;BME280;65096;50.998;7.098;2022-12-07T02:17:46;101053.28;;;4.09;72.00
76285;BME280;65096;50.998;7.098;2022-12-07T02:20:26;101048.94;;;4.06;71.92
76285;BME280;65096;50.998;7.098;2022-12-07T02:23:09;101056.69;;;4.09;71.81
76285;BME280;65096;50.998;7.098;2022-12-07T02:25:58;101055.81;;;4.09;72.22
76285;BME280;65096;50.998;7.098;2022-12-07T02:28:31;101052.38;;;4.07;72.06
76285;BME280;65096;50.998;7.098;2022-12-07T02:31:05;101046.28;;;4.03;72.37
76285;BME280;65096;50.998;7.098;2022-12-07T02:33:37;101053.00;;;4.01;72.63
76285;BME280;65096;50.998;7.098;2022-12-07T02:36:11;101041.84;;;3.99;72.28
76285;BME280;65096;50.998;7.098;2022-12-07T02:38:44;101049.66;;;4.02;72.42
76285;BME280;65096;50.998;7.098;2022-12-07T02:41:17;101051.38;;;4.03;72.51
76285;BME280;65096;50.998;7.098;2022-12-07T02:43:49;101048.25;;;4.10;72.15
76285;BME280;65096;50.998;7.098;2022-12-07T02:46:21;101043.22;;;4.12;72.24
76285;BME280;65096;50.998;7.098;2022-12-07T02:48:50;101038.16;;;4.13;71.75
76285;BME280;65096;50.998;7.098;2022-12-07T02:51:17;101037.13;;;4.08;72.15
76285;BME280;65096;50.998;7.098;2022-12-07T02:53:44;101050.72;;;4.09;72.20
76285;BME280;65096;50.998;7.098;2022-12-07T02:56:19;101042.22;;;4.08;71.82
76285;BME280;65096;50.998;7.098;2022-12-07T02:58:55;101043.16;;;4.10;72.08
76285;BME280;65096;50.998;7.098;2022-12-07T03:01:31;101036.22;;;4.08;72.07
76285;BME280;65096;50.998;7.098;2022-12-07T03:04:12;101039.88;;;4.14;72.08
76285;BME280;65096;50.998;7.098;2022-12-07T03:06:49;101037.38;;;4.16;71.94
76285;BME280;65096;50.998;7.098;2022-12-07T03:09:22;101045.94;;;4.16;72.20
76285;BME280;65096;50.998;7.098;2022-12-07T03:12:03;101043.31;;;4.15;72.03
76285;BME280;65096;50.998;7.098;2022-12-07T03:14:36;101050.19;;;4.17;72.12
76285;BME280;65096;50.998;7.098;2022-12-07T03:17:12;101052.91;;;4.22;72.15
76285;BME280;65096;50.998;7.098;2022-12-07T03:19:41;101053.75;;;4.21;71.99
76285;BME280;65096;50.998;7.098;2022-12-07T03:22:12;101053.47;;;4.13;72.01
76285;BME280;65096;50.998;7.098;2022-12-07T03:24:43;101042.38;;;4.13;71.95
76285;BME280;65096;50.998;7.098;2022-12-07T03:27:13;101042.38;;;4.13;72.07
76285;BME280;65096;50.998;7.098;2022-12-07T03:29:43;101045.81;;;4.13;71.96
76285;BME280;65096;50.998;7.098;2022-12-07T03:32:16;101047.59;;;4.16;71.93
76285;BME280;65096;50.998;7.098;2022-12-07T03:34:50;101044.16;;;4.15;72.30
76285;BME280;65096;50.998;7.098;2022-12-07T03:37:25;101044.81;;;4.10;72.44
76285;BME280;65096;50.998;7.098;2022-12-07T03:39:59;101045.00;;;4.14;72.29
76285;BME280;65096;50.998;7.098;2022-12-07T03:42:28;101045.09;;;4.17;72.71
76285;BME280;65096;50.998;7.098;2022-12-07T03:44:55;101049.22;;;4.14;72.59
76285;BME280;65096;50.998;7.098;2022-12-07T03:47:26;101046.03;;;4.19;72.07
76285;BME280;65096;50.998;7.098;2022-12-07T03:50:00;101041.66;;;4.17;72.08
76285;BME280;65096;50.998;7.098;2022-12-07T03:52:33;101049.38;;;4.18;72.03
76285;BME280;65096;50.998;7.098;2022-12-07T03:55:07;101045.00;;;4.14;72.10
76285;BME280;65096;50.998;7.098;2022-12-07T03:57:37;101050.09;;;4.14;72.34
76285;BME280;65096;50.998;7.098;2022-12-07T04:00:07;101047.38;;;4.10;72.24
76285;BME280;65096;50.998;7.098;2022-12-07T04:02:36;101049.16;;;4.12;72.52
76285;BME280;65096;50.998;7.098;2022-12-07T04:05:03;101037.44;;;4.17;72.28
76285;BME280;65096;50.998;7.098;2022-12-07T04:07:30;101038.94;;;4.12;72.51
76285;BME280;65096;50.998;7.098;2022-12-07T04:09:57;101042.44;;;4.14;71.99
76285;BME280;65096;50.998;7.098;2022-12-07T04:12:24;101045.88;;;4.15;72.17
76285;BME280;65096;50.998;7.098;2022-12-07T04:14:50;101045.75;;;4.12;71.91
76285;BME280;65096;50.998;7.098;2022-12-07T04:17:17;101055.81;;;4.09;72.43
76285;BME280;65096;50.998;7.098;2022-12-07T04:19:45;101050.72;;;4.09;72.66
76285;BME280;65096;50.998;7.098;2022-12-07T04:22:12;101051.50;;;4.06;72.59
76285;BME280;65096;50.998;7.098;2022-12-07T04:24:38;101048.88;;;4.05;72.11
76285;BME280;65096;50.998;7.098;2022-12-07T04:27:05;101045.06;;;3.94;72.45
76285;BME280;65096;50.998;7.098;2022-12-07T04:29:32;101056.66;;;4.08;72.43
76285;BME280;65096;50.998;7.098;2022-12-07T04:31:59;101052.19;;;4.02;72.56
76285;BME280;65096;50.998;7.098;2022-12-07T04:34:26;101045.94;;;3.94;72.23
76285;BME280;65096;50.998;7.098;2022-12-07T04:36:54;101034.09;;;3.96;72.87
76285;BME280;65096;50.998;7.098;2022-12-07T04:39:23;101041.56;;;3.92;72.60
76285;BME280;65096;50.998;7.098;2022-12-07T04:41:51;101033.91;;;3.92;73.05
76285;BME280;65096;50.998;7.098;2022-12-07T04:44:18;101040.63;;;3.90;72.95
76285;BME280;65096;50.998;7.098;2022-12-07T04:46:45;101036.34;;;3.89;72.66
76285;BME280;65096;50.998;7.098;2022-12-07T04:49:13;101042.50;;;3.94;72.72
76285;BME280;65096;50.998;7.098;2022-12-07T04:51:40;101034.69;;;3.89;72.66
76285;BME280;65096;50.998;7.098;2022-12-07T04:54:09;101037.97;;;3.87;73.17
76285;BME280;65096;50.998;7.098;2022-12-07T04:56:36;101038.91;;;3.89;72.91
76285;BME280;65096;50.998;7.098;2022-12-07T04:59:03;101035.41;;;3.87;72.85
76285;BME280;65096;50.998;7.098;2022-12-07T05:01:30;101040.53;;;3.87;73.04
76285;BME280;65096;50.998;7.098;2022-12-07T05:03:57;101029.53;;;3.88;73.01
76285;BME280;65096;50.998;7.098;2022-12-07T05:06:24;101036.28;;;3.87;72.55
76285;BME280;65096;50.998;7.098;2022-12-07T05:08:52;101001.91;;;3.56;73.03
76285;BME280;65096;50.998;7.098;2022-12-07T05:11:21;101042.22;;;3.86;72.96
76285;BME280;65096;50.998;7.098;2022-12-07T05:14:09;101028.69;;;3.89;73.04
76285;BME280;65096;50.998;7.098;2022-12-07T05:16:36;101033.34;;;3.99;72.63
76285;BME280;65096;50.998;7.098;2022-12-07T05:19:04;101028.25;;;3.99;72.41
76285;BME280;65096;50.998;7.098;2022-12-07T05:21:30;101036.88;;;4.02;72.40
76285;BME280;65096;50.998;7.098;2022-12-07T05:23:57;101035.13;;;4.01;72.31
76285;BME280;65096;50.998;7.098;2022-12-07T05:26:25;101032.47;;;3.98;72.34
76285;BME280;65096;50.998;7.098;2022-12-07T05:28:53;101037.75;;;4.03;71.69
76285;BME280;65096;50.998;7.098;2022-12-07T05:31:20;101040.22;;;4.01;72.27
76285;BME280;65096;50.998;7.098;2022-12-07T05:33:47;101035.06;;;4.00;72.44
76285;BME280;65096;50.998;7.098;2022-12-07T05:36:14;101037.22;;;3.89;72.28
76285;BME280;65096;50.998;7.098;2022-12-07T05:38:41;101041.56;;;3.92;72.64
76285;BME280;65096;50.998;7.098;2022-12-07T05:41:08;101042.34;;;3.89;72.79
76285;BME280;65096;50.998;7.098;2022-12-07T05:43:59;101041.47;;;3.89;72.61
76285;BME280;65096;50.998;7.098;2022-12-07T05:46:26;101030.69;;;3.96;72.30
76285;BME280;65096;50.998;7.098;2022-12-07T05:48:53;101036.63;;;3.96;72.51
76285;BME280;65096;50.998;7.098;2022-12-07T05:51:20;101031.47;;;3.95;72.66
76285;BME280;65096;50.998;7.098;2022-12-07T05:53:47;101035.19;;;4.03;72.15
76285;BME280;65096;50.998;7.098;2022-12-07T05:56:13;101039.63;;;4.07;72.37
76285;BME280;65096;50.998;7.098;2022-12-07T05:58:40;101029.34;;;4.05;72.09
76285;BME280;65096;50.998;7.098;2022-12-07T06:01:26;101036.22;;;4.08;71.84
76285;BME280;65096;50.998;7.098;2022-12-07T06:03:52;101030.31;;;4.09;71.92
76285;BME280;65096;50.998;7.098;2022-12-07T06:06:19;101030.50;;;4.13;72.11
76285;BME280;65096;50.998;7.098;2022-12-07T06:08:46;101033.91;;;4.14;71.76
76285;BME280;65096;50.998;7.098;2022-12-07T06:11:12;101032.16;;;4.13;72.02
76285;BME280;65096;50.998;7.098;2022-12-07T06:13:56;101032.41;;;4.19;71.78
76285;BME280;65096;50.998;7.098;2022-12-07T06:16:23;101038.31;;;4.18;71.63
76285;BME280;65096;50.998;7.098;2022-12-07T06:18:51;101038.16;;;4.13;71.87
76285;BME280;65096;50.998;7.098;2022-12-07T06:21:18;101027.75;;;4.09;71.96
76285;BME280;65096;50.998;7.098;2022-12-07T06:23:44;101044.09;;;4.14;71.61
76285;BME280;65096;50.998;7.098;2022-12-07T06:26:13;101035.25;;;4.04;71.51
76285;BME280;65096;50.998;7.098;2022-12-07T06:28:39;101043.88;;;4.08;72.13
76285;BME280;65096;50.998;7.098;2022-12-07T06:31:07;101029.28;;;4.04;71.60
76285;BME280;65096;50.998;7.098;2022-12-07T06:33:34;101038.03;;;4.10;71.61
76285;BME280;65096;50.998;7.098;2022-12-07T06:36:02;101044.09;;;4.14;71.50
76285;BME280;65096;50.998;7.098;2022-12-07T06:38:29;101051.66;;;4.11;71.74
76285;BME280;65096;50.998;7.098;2022-12-07T06:40:56;101042.28;;;4.10;71.20
76285;BME280;65096;50.998;7.098;2022-12-07T06:43:23;101049.88;;;4.08;71.79
76285;BME280;65096;50.998;7.098;2022-12-07T06:45:50;101057.59;;;4.10;71.59
76285;BME280;65096;50.998;7.098;2022-12-07T06:48:19;101049.94;;;4.10;71.43
76285;BME280;65096;50.998;7.098;2022-12-07T06:50:46;101051.44;;;4.05;71.70
76285;BME280;65096;50.998;7.098;2022-12-07T06:53:15;101048.88;;;4.05;71.21
76285;BME280;65096;50.998;7.098;2022-12-07T06:55:42;101052.25;;;4.04;71.67
76285;BME280;65096;50.998;7.098;2022-12-07T06:58:09;101060.81;;;4.06;71.29
76285;BME280;65096;50.998;7.098;2022-12-07T07:00:35;101054.91;;;4.07;71.15
76285;BME280;65096;50.998;7.098;2022-12-07T07:03:02;101052.38;;;4.07;71.43
76285;BME280;65096;50.998;7.098;2022-12-07T07:05:29;101035.06;;;4.00;71.46
76285;BME280;65096;50.998;7.098;2022-12-07T07:07:56;101048.88;;;4.05;71.79
76285;BME280;65096;50.998;7.098;2022-12-07T07:10:24;101041.00;;;3.99;71.33
76285;BME280;65096;50.998;7.098;2022-12-07T07:12:50;101045.56;;;4.07;71.46
76285;BME280;65096;50.998;7.098;2022-12-07T07:15:17;101052.47;;;4.10;71.54
76285;BME280;65096;50.998;7.098;2022-12-07T07:17:43;101053.16;;;4.06;71.67
76285;BME280;65096;50.998;7.098;2022-12-07T07:20:11;101061.00;;;4.10;71.20
76285;BME280;65096;50.998;7.098;2022-12-07T07:22:38;101062.78;;;4.13;71.16
76285;BME280;65096;50.998;7.098;2022-12-07T07:25:07;101063.56;;;4.10;70.98
76285;BME280;65096;50.998;7.098;2022-12-07T07:27:36;101056.59;;;4.06;71.27
76285;BME280;65096;50.998;7.098;2022-12-07T07:30:03;101060.94;;;4.09;71.36
76285;BME280;65096;50.998;7.098;2022-12-07T07:32:30;101061.81;;;4.09;71.92
76285;BME280;65096;50.998;7.098;2022-12-07T07:34:57;101056.88;;;4.14;72.67
76285;BME280;65096;50.998;7.098;2022-12-07T07:37:23;101053.53;;;4.15;71.99
76285;BME280;65096;50.998;7.098;2022-12-07T07:39:50;101058.69;;;4.16;72.05
76285;BME280;65096;50.998;7.098;2022-12-07T07:42:17;101058.69;;;4.16;71.10
76285;BME280;65096;50.998;7.098;2022-12-07T07:44:45;101056.06;;;4.15;71.48
76285;BME280;65096;50.998;7.098;2022-12-07T07:47:12;101058.22;;;4.04;71.31
76285;BME280;65096;50.998;7.098;2022-12-07T07:49:38;101056.53;;;4.05;71.30
76285;BME280;65096;50.998;7.098;2022-12-07T07:52:05;101059.97;;;4.05;71.65
76285;BME280;65096;50.998;7.098;2022-12-07T07:54:32;101056.59;;;4.06;71.39
76285;BME280;65096;50.998;7.098;2022-12-07T07:57:01;101063.91;;;3.97;71.05
76285;BME280;65096;50.998;7.098;2022-12-07T07:59:28;101069.00;;;3.97;71.71
76285;BME280;65096;50.998;7.098;2022-12-07T08:01:56;101070.69;;;3.97;72.09
76285;BME280;65096;50.998;7.098;2022-12-07T08:04:23;101074.16;;;3.99;71.44
76285;BME280;65096;50.998;7.098;2022-12-07T08:06:49;101068.31;;;4.01;71.38
76285;BME280;65096;50.998;7.098;2022-12-07T08:09:16;101068.34;;;4.03;70.95
76285;BME280;65096;50.998;7.098;2022-12-07T08:11:43;101070.13;;;4.04;71.34
76285;BME280;65096;50.998;7.098;2022-12-07T08:14:10;101064.06;;;4.02;71.50
76285;BME280;65096;50.998;7.098;2022-12-07T08:16:37;101071.84;;;4.05;71.05
76285;BME280;65096;50.998;7.098;2022-12-07T08:19:06;101075.22;;;4.04;71.57
76285;BME280;65096;50.998;7.098;2022-12-07T08:21:33;101071.91;;;4.06;70.86
76285;BME280;65096;50.998;7.098;2022-12-07T08:24:00;101066.84;;;4.08;70.75
76285;BME280;65096;50.998;7.098;2022-12-07T08:26:26;101075.22;;;4.04;71.03
76285;BME280;65096;50.998;7.098;2022-12-07T08:28:53;101079.38;;;4.02;70.57
76285;BME280;65096;50.998;7.098;2022-12-07T08:31:22;101080.13;;;3.99;71.41
76285;BME280;65096;50.998;7.098;2022-12-07T08:33:49;101081.88;;;4.00;71.05
76285;BME280;65096;50.998;7.098;2022-12-07T08:36:17;101079.38;;;4.02;70.93
76285;BME280;65096;50.998;7.098;2022-12-07T08:38:44;101084.66;;;4.06;71.49
76285;BME280;65096;50.998;7.098;2022-12-07T08:41:10;101081.34;;;4.09;71.00
76285;BME280;65096;50.998;7.098;2022-12-07T08:43:37;101088.31;;;4.13;71.17
76285;BME280;65096;50.998;7.098;2022-12-07T08:46:08;101085.75;;;4.13;71.05
76285;BME280;65096;50.998;7.098;2022-12-07T08:48:38;101084.81;;;4.11;71.40
76285;BME280;65096;50.998;7.098;2022-12-07T08:51:06;101090.09;;;4.15;71.00
76285;BME280;65096;50.998;7.098;2022-12-07T08:53:35;101088.38;;;4.14;71.32
76285;BME280;65096;50.998;7.098;2022-12-07T08:56:03;101089.25;;;4.15;71.49
76285;BME280;65096;50.998;7.098;2022-12-07T08:58:31;101075.44;;;4.10;71.40
76285;BME280;65096;50.998;7.098;2022-12-07T09:00:58;101086.69;;;4.15;71.28
76285;BME280;65096;50.998;7.098;2022-12-07T09:03:25;101089.38;;;4.18;71.13
76285;BME280;65096;50.998;7.098;2022-12-07T09:05:52;101084.25;;;4.18;71.55
76285;BME280;65096;50.998;7.098;2022-12-07T09:08:20;101084.25;;;4.18;71.50
76285;BME280;65096;50.998;7.098;2022-12-07T09:10:49;101082.69;;;4.21;71.38
76285;BME280;65096;50.998;7.098;2022-12-07T09:13:16;101080.94;;;4.20;71.43
76285;BME280;65096;50.998;7.098;2022-12-07T09:15:42;101084.44;;;4.22;71.43
76285;BME280;65096;50.998;7.098;2022-12-07T09:18:09;101085.19;;;4.20;71.40
76285;BME280;65096;50.998;7.098;2022-12-07T09:20:36;101080.94;;;4.20;71.30
76285;BME280;65096;50.998;7.098;2022-12-07T09:23:05;101082.75;;;4.23;71.43
76285;BME280;65096;50.998;7.098;2022-12-07T09:25:32;101085.25;;;4.21;71.38
76285;BME280;65096;50.998;7.098;2022-12-07T09:28:00;101086.88;;;4.19;71.58
76285;BME280;65096;50.998;7.098;2022-12-07T09:30:28;101092.13;;;4.24;71.26
76285;BME280;65096;50.998;7.098;2022-12-07T09:32:55;101082.91;;;4.27;71.28
76285;BME280;65096;50.998;7.098;2022-12-07T09:35:23;101081.16;;;4.26;71.63
76285;BME280;65096;50.998;7.098;2022-12-07T09:37:50;101087.19;;;4.28;71.28
76285;BME280;65096;50.998;7.098;2022-12-07T09:40:20;101076.25;;;4.31;70.77
76285;BME280;65096;50.998;7.098;2022-12-07T09:42:48;101083.66;;;4.25;70.97
76285;BME280;65096;50.998;7.098;2022-12-07T09:45:19;101081.25;;;4.28;70.93
76285;BME280;65096;50.998;7.098;2022-12-07T09:47:47;101081.88;;;4.22;71.52
76285;BME280;65096;50.998;7.098;2022-12-07T09:50:16;101080.44;;;4.29;70.79
76285;BME280;65096;50.998;7.098;2022-12-07T09:52:44;101071.88;;;4.28;71.24
76285;BME280;65096;50.998;7.098;2022-12-07T09:55:14;101084.06;;;4.34;71.20
76285;BME280;65096;50.998;7.098;2022-12-07T09:57:42;101082.44;;;4.36;70.96
76285;BME280;65096;50.998;7.098;2022-12-07T10:00:15;101077.41;;;4.17;71.54
76285;BME280;65096;50.998;7.098;2022-12-07T10:02:46;101075.88;;;4.22;71.53
76285;BME280;65096;50.998;7.098;2022-12-07T10:05:14;101075.31;;;4.29;71.93
76285;BME280;65096;50.998;7.098;2022-12-07T10:07:42;101079.94;;;4.37;71.40
76285;BME280;65096;50.998;7.098;2022-12-07T10:10:15;101062.97;;;4.39;71.11
76285;BME280;65096;50.998;7.098;2022-12-07T10:12:54;101060.66;;;4.45;71.56
76285;BME280;65096;50.998;7.098;2022-12-07T10:15:21;101063.28;;;4.47;71.30
76285;BME280;65096;50.998;7.098;2022-12-07T10:17:50;101058.16;;;4.47;71.19
76285;BME280;65096;50.998;7.098;2022-12-07T10:20:23;101052.28;;;4.49;71.37
76285;BME280;65096;50.998;7.098;2022-12-07T10:23:01;101050.66;;;4.51;71.53
76285;BME280;65096;50.998;7.098;2022-12-07T10:25:31;101052.19;;;4.46;71.13
76285;BME280;65096;50.998;7.098;2022-12-07T10:28:17;101044.78;;;4.54;71.13
76285;BME280;65096;50.998;7.098;2022-12-07T10:30:48;101050.06;;;4.58;71.21
76285;BME280;65096;50.998;7.098;2022-12-07T10:33:31;101050.06;;;4.58;70.99
76285;BME280;65096;50.998;7.098;2022-12-07T10:36:01;101041.50;;;4.56;71.01
76285;BME280;65096;50.998;7.098;2022-12-07T10:38:44;101034.88;;;4.61;71.33
76285;BME280;65096;50.998;7.098;2022-12-07T10:41:12;101039.31;;;4.67;71.04
76285;BME280;65096;50.998;7.098;2022-12-07T10:43:46;101038.56;;;4.69;71.57
76285;BME280;65096;50.998;7.098;2022-12-07T10:52:12;101025.00;;;4.72;70.84
76285;BME280;65096;50.998;7.098;2022-12-07T10:54:48;101021.63;;;4.73;70.72
76285;BME280;65096;50.998;7.098;2022-12-07T10:57:32;101021.03;;;4.80;70.52
76285;BME280;65096;50.998;7.098;2022-12-07T11:00:08;101022.44;;;4.72;70.50
76285;BME280;65096;50.998;7.098;2022-12-07T11:02:51;101015.78;;;4.75;70.26
76285;BME280;65096;50.998;7.098;2022-12-07T11:05:24;101009.13;;;4.80;70.41
76285;BME280;65096;50.998;7.098;2022-12-07T11:08:02;101001.56;;;4.83;70.54
76285;BME280;65096;50.998;7.098;2022-12-07T11:10:38;101001.69;;;4.86;70.64
76285;BME280;65096;50.998;7.098;2022-12-07T11:13:18;100994.06;;;4.88;70.78
76285;BME280;65096;50.998;7.098;2022-12-07T11:16:07;100992.44;;;4.90;70.75
76285;BME280;65096;50.998;7.098;2022-12-07T11:18:47;100983.53;;;4.79;70.66
76285;BME280;65096;50.998;7.098;2022-12-07T11:21:22;100982.66;;;4.78;70.28
76285;BME280;65096;50.998;7.098;2022-12-07T11:23:57;100969.75;;;4.74;69.91
76285;BME280;65096;50.998;7.098;2022-12-07T11:26:34;100982.56;;;4.75;70.61
76285;BME280;65096;50.998;7.098;2022-12-07T11:29:18;100979.28;;;4.79;70.46
76285;BME280;65096;50.998;7.098;2022-12-07T11:31:58;100970.88;;;4.82;69.93
76285;BME280;65096;50.998;7.098;2022-12-07T11:34:37;100930.84;;;4.57;70.52
76285;BME280;65096;50.998;7.098;2022-12-07T11:37:11;100965.03;;;4.86;69.87
76285;BME280;65096;50.998;7.098;2022-12-07T11:39:42;100972.69;;;4.86;70.09
76285;BME280;65096;50.998;7.098;2022-12-07T11:42:15;100967.59;;;4.86;70.16
76285;BME280;65096;50.998;7.098;2022-12-07T11:44:48;100971.22;;;4.92;70.56
76285;BME280;65096;50.998;7.098;2022-12-07T11:47:24;100962.47;;;4.86;70.69
76285;BME280;65096;50.998;7.098;2022-12-07T11:49:55;100963.91;;;4.78;70.15
76285;BME280;65096;50.998;7.098;2022-12-07T11:52:32;100954.81;;;4.86;70.61
76285;BME280;65096;50.998;7.098;2022-12-07T11:55:16;100957.13;;;4.78;70.07
76285;BME280;65096;50.998;7.098;2022-12-07T11:57:51;100956.44;;;4.84;70.80
76285;BME280;65096;50.998;7.098;2022-12-07T12:00:20;100956.47;;;4.85;70.36
76285;BME280;65096;50.998;7.098;2022-12-07T12:02:52;100959.16;;;4.88;70.43
76285;BME280;65096;50.998;7.098;2022-12-07T12:05:22;100951.75;;;4.96;70.34
76285;BME280;65096;50.998;7.098;2022-12-07T12:07:59;100954.50;;;5.02;70.14
76285;BME280;65096;50.998;7.098;2022-12-07T12:10:38;100947.09;;;5.11;71.40
76285;BME280;65096;50.998;7.098;2022-12-07T12:13:30;100947.97;;;5.12;70.59
76285;BME280;65096;50.998;7.098;2022-12-07T12:16:32;100942.88;;;5.12;70.70
76285;BME280;65096;50.998;7.098;2022-12-07T12:19:19;100946.16;;;5.08;70.60
76285;BME280;65096;50.998;7.098;2022-12-07T12:21:54;100941.91;;;5.08;69.36
76285;BME280;65096;50.998;7.098;2022-12-07T12:24:26;100936.84;;;5.10;69.31
76285;BME280;65096;50.998;7.098;2022-12-07T12:27:00;100939.56;;;5.14;70.18
76285;BME280;65096;50.998;7.098;2022-12-07T12:29:31;100933.81;;;5.21;70.36
76285;BME280;65096;50.998;7.098;2022-12-07T12:32:21;100927.00;;;5.22;69.84
76285;BME280;65096;50.998;7.098;2022-12-07T12:35:00;100932.34;;;5.29;69.75
76285;BME280;65096;50.998;7.098;2022-12-07T12:37:40;100927.50;;;5.37;69.83
76285;BME280;65096;50.998;7.098;2022-12-07T12:40:41;100933.53;;;5.40;69.28
76285;BME280;65096;50.998;7.098;2022-12-07T12:43:43;100931.06;;;5.43;69.98
76285;BME280;65096;50.998;7.098;2022-12-07T12:46:37;100925.25;;;5.47;69.37
76285;BME280;65096;50.998;7.098;2022-12-07T12:58:33;100911.09;;;5.58;68.94
76285;BME280;65096;50.998;7.098;2022-12-07T13:01:37;100907.94;;;5.67;67.98
76285;BME280;65096;50.998;7.098;2022-12-07T13:04:24;100908.16;;;5.74;68.63
76285;BME280;65096;50.998;7.098;2022-12-07T13:06:52;100901.72;;;5.88;67.35
76285;BME280;65096;50.998;7.098;2022-12-07T13:09:22;100901.16;;;5.98;65.99
76285;BME280;65096;50.998;7.098;2022-12-07T13:11:56;100902.47;;;6.15;66.50
76285;BME280;65096;50.998;7.098;2022-12-07T13:14:53;100900.06;;;6.20;65.94
76285;BME280;65096;50.998;7.098;2022-12-07T13:17:55;100903.66;;;6.26;64.04
76285;BME280;65096;50.998;7.098;2022-12-07T13:20:44;100895.16;;;6.26;64.99
76285;BME280;65096;50.998;7.098;2022-12-07T13:23:12;100899.53;;;6.31;64.75
76285;BME280;65096;50.998;7.098;2022-12-07T13:25:49;100901.34;;;6.34;64.69
76285;BME280;65096;50.998;7.098;2022-12-07T13:28:18;100895.25;;;6.30;63.95
76285;BME280;65096;50.998;7.098;2022-12-07T13:30:58;100891.16;;;6.37;62.56
76285;BME280;65096;50.998;7.098;2022-12-07T13:33:28;100889.06;;;6.22;63.93
76285;BME280;65096;50.998;7.098;2022-12-07T13:35:55;100877.28;;;6.29;62.94
76285;BME280;65096;50.998;7.098;2022-12-07T13:38:28;100881.63;;;6.31;62.69